createdAt,value
2023-03-06T00:04:19.286Z,15.00
2023-03-06T00:09:41.600Z,8.93
2023-03-06T00:15:05.696Z,7.87
2023-03-06T00:20:28.334Z,6.87
2023-03-06T00:25:50.665Z,7.43
2023-03-06T00:31:12.947Z,10.47
2023-03-06T00:36:37.274Z,8.43
2023-03-06T00:41:59.405Z,9.30
2023-03-06T00:47:21.750Z,10.63
2023-03-06T00:52:44.005Z,7.63
2023-03-06T00:58:06.293Z,10.50
2023-03-06T01:03:31.091Z,13.00
2023-03-06T01:08:53.245Z,10.80
2023-03-06T01:14:15.889Z,8.30
2023-03-06T01:19:38.164Z,7.63
2023-03-06T01:25:00.790Z,6.67
2023-03-06T01:30:22.945Z,8.60
2023-03-06T01:35:45.395Z,5.67
2023-03-06T01:41:08.579Z,8.67
2023-03-06T01:46:43.101Z,7.03
2023-03-06T01:52:10.630Z,4.13
2023-03-06T01:57:36.658Z,6.53
2023-03-06T02:03:10.517Z,2.63
2023-03-06T02:08:33.824Z,3.83
2023-03-06T02:13:56.485Z,4.70
2023-03-06T02:19:45.545Z,4.50
2023-03-06T02:25:34.075Z,5.80
2023-03-06T02:30:57.103Z,4.33
2023-03-06T02:36:19.510Z,6.30
2023-03-06T02:41:41.612Z,5.67
2023-03-06T02:47:04.164Z,7.20
2023-03-06T02:52:26.696Z,6.47
2023-03-06T02:57:49.156Z,9.87
2023-03-06T03:03:12.097Z,6.40
2023-03-06T03:08:35.250Z,9.93
2023-03-06T03:13:59.131Z,11.33
2023-03-06T03:19:23.929Z,8.53
2023-03-06T03:24:47.211Z,8.07
2023-03-06T03:30:10.612Z,11.20
2023-03-06T03:35:33.686Z,11.50
2023-03-06T03:40:56.557Z,15.73
2023-03-06T03:46:21.565Z,11.43
2023-03-06T03:51:45.641Z,8.77
2023-03-06T03:57:08.385Z,9.10
2023-03-06T04:02:35.017Z,5.77
2023-03-06T04:08:06.156Z,5.93
2023-03-06T04:13:30.764Z,7.67
2023-03-06T04:18:53.402Z,5.97
2023-03-06T04:24:16.684Z,4.97
2023-03-06T04:29:39.178Z,7.70
2023-03-06T04:35:01.935Z,3.40
2023-03-06T04:40:31.826Z,7.60
2023-03-06T04:45:54.252Z,4.70
2023-03-06T04:51:16.820Z,7.83
2023-03-06T04:56:39.120Z,4.97
2023-03-06T05:02:01.745Z,3.77
2023-03-06T05:07:23.929Z,3.13
2023-03-06T05:12:46.623Z,2.10
2023-03-06T05:18:09.138Z,4.93
2023-03-06T05:23:33.459Z,2.50
2023-03-06T05:28:56.076Z,2.40
2023-03-06T05:34:18.282Z,2.67
2023-03-06T05:39:40.499Z,2.67
2023-03-06T05:45:04.629Z,3.07
2023-03-06T05:50:26.900Z,3.93
2023-03-06T05:56:15.808Z,2.67
2023-03-06T06:01:37.929Z,3.33
2023-03-06T06:07:01.326Z,3.63
2023-03-06T06:12:23.743Z,5.33
2023-03-06T06:17:45.750Z,3.57
2023-03-06T06:23:11.408Z,7.70
2023-03-06T06:28:34.665Z,7.37
2023-03-06T06:33:56.948Z,5.17
2023-03-06T06:39:21.922Z,5.17
2023-03-06T06:44:44.331Z,5.97
2023-03-06T06:50:10.621Z,8.07
2023-03-06T06:55:32.963Z,6.47
2023-03-06T07:00:55.160Z,4.37
2023-03-06T07:06:17.553Z,6.37
2023-03-06T07:11:41.351Z,6.57
2023-03-06T07:17:03.571Z,7.07
2023-03-06T07:22:25.959Z,5.07
2023-03-06T07:27:53.413Z,6.13
2023-03-06T07:33:16.263Z,5.33
2023-03-06T07:38:38.977Z,7.73
2023-03-06T07:44:01.997Z,7.70
2023-03-06T07:49:24.582Z,6.87
2023-03-06T07:54:46.831Z,5.70
2023-03-06T08:00:29.052Z,3.00
2023-03-06T08:05:51.342Z,7.70
2023-03-06T08:11:15.573Z,3.33
2023-03-06T08:16:37.793Z,5.90
2023-03-06T08:22:00.247Z,4.23
2023-03-06T08:27:22.529Z,3.47
2023-03-06T08:32:44.951Z,2.47
2023-03-06T08:38:07.263Z,1.97
2023-03-06T08:43:29.884Z,5.97
2023-03-06T08:48:52.307Z,3.67
2023-03-06T08:54:14.939Z,5.93
2023-03-06T08:59:37.782Z,4.13
2023-03-06T09:05:01.350Z,7.90
2023-03-06T09:10:25.594Z,4.00
2023-03-06T09:15:48.294Z,3.00
2023-03-06T09:21:10.959Z,3.00
2023-03-06T09:26:45.123Z,2.93
2023-03-06T09:32:08.124Z,4.30
2023-03-06T09:37:30.487Z,4.50
2023-03-06T09:42:53.001Z,3.87
2023-03-06T09:48:16.770Z,2.63
2023-03-06T09:54:00.592Z,8.73
2023-03-06T09:59:25.446Z,3.80
2023-03-06T10:04:52.347Z,5.27
2023-03-06T10:10:24.781Z,3.70
2023-03-06T10:15:48.168Z,3.30
2023-03-06T10:21:38.293Z,2.53
2023-03-06T10:27:16.878Z,3.43
2023-03-06T10:32:59.891Z,4.60
2023-03-06T10:38:30.064Z,5.17
2023-03-06T10:44:01.335Z,3.93
2023-03-06T10:49:31.422Z,4.80
2023-03-06T10:55:22.034Z,4.17
2023-03-06T11:00:44.456Z,4.73
2023-03-06T11:06:35.138Z,4.67
2023-03-06T11:12:20.657Z,4.40
2023-03-06T11:18:06.213Z,4.00
2023-03-06T11:23:36.169Z,10.80
2023-03-06T11:29:02.238Z,14.53
2023-03-06T11:34:50.519Z,14.63
2023-03-06T11:40:33.808Z,10.47
2023-03-06T11:46:18.706Z,10.27
2023-03-06T11:51:47.293Z,11.10
2023-03-06T11:57:20.428Z,9.77
2023-03-06T12:03:00.946Z,14.10
2023-03-06T12:08:40.248Z,11.67
2023-03-06T12:14:24.387Z,11.00
2023-03-06T12:19:59.164Z,7.60
2023-03-06T12:25:39.588Z,15.37
2023-03-06T12:31:25.025Z,12.20
2023-03-06T12:37:09.717Z,10.20
2023-03-06T12:42:34.590Z,10.23
2023-03-06T12:47:58.213Z,9.03
2023-03-06T12:53:35.401Z,8.00
2023-03-06T12:59:02.506Z,8.60
2023-03-06T13:04:52.004Z,9.37
2023-03-06T13:10:35.057Z,11.23
2023-03-06T13:16:03.575Z,15.40
2023-03-06T13:21:53.873Z,13.70
2023-03-06T13:27:44.777Z,10.90
2023-03-06T13:33:27.348Z,7.67
2023-03-06T13:38:49.501Z,5.27
2023-03-06T13:44:40.750Z,5.30
2023-03-06T13:50:41.166Z,3.90
2023-03-06T13:56:18.730Z,4.27
2023-03-06T14:01:52.963Z,2.23
2023-03-06T14:07:40.094Z,5.40
2023-03-06T14:13:26.630Z,1.50
2023-03-06T14:18:55.217Z,1.67
2023-03-06T14:24:20.065Z,1.30
2023-03-06T14:29:43.227Z,3.30
2023-03-06T14:35:06.571Z,1.20
2023-03-06T14:40:34.819Z,6.10
2023-03-06T14:46:03.097Z,2.37
2023-03-06T14:51:27.650Z,5.53
2023-03-06T14:57:13.887Z,3.30
2023-03-06T15:02:36.445Z,1.60
2023-03-06T15:08:05.207Z,4.13
2023-03-06T15:13:29.602Z,2.80
2023-03-06T15:18:56.784Z,1.57
2023-03-06T15:24:37.321Z,3.17
2023-03-06T15:30:21.659Z,1.50
2023-03-06T15:36:28.706Z,2.33
2023-03-06T15:42:18.187Z,3.40
2023-03-06T15:47:40.859Z,2.70
2023-03-06T15:53:04.068Z,1.40
2023-03-06T15:58:34.325Z,4.43
2023-03-06T16:03:56.932Z,1.70
2023-03-06T16:09:19.652Z,1.73
2023-03-06T16:14:42.234Z,5.40
2023-03-06T16:20:06.343Z,7.87
2023-03-06T16:25:28.970Z,5.60
2023-03-06T16:30:51.463Z,6.80
2023-03-06T16:36:18.600Z,5.57
2023-03-06T16:41:40.989Z,10.80
2023-03-06T16:47:03.478Z,7.27
2023-03-06T16:52:25.986Z,6.37
2023-03-06T16:57:48.709Z,2.10
2023-03-06T17:03:11.296Z,5.60
2023-03-06T17:08:33.417Z,6.27
2023-03-06T17:13:56.137Z,1.23
2023-03-06T17:19:18.752Z,2.10
2023-03-06T17:24:41.689Z,3.13
2023-03-06T17:30:05.996Z,7.70
2023-03-06T17:35:28.513Z,3.90
2023-03-06T17:40:51.296Z,2.97
2023-03-06T17:46:13.940Z,3.13
2023-03-06T17:51:36.362Z,8.77
2023-03-06T17:57:01.312Z,4.97
2023-03-06T18:02:23.842Z,5.13
2023-03-06T18:07:46.381Z,5.17
2023-03-06T18:13:09.858Z,6.83
2023-03-06T18:18:32.785Z,3.77
2023-03-06T18:23:55.009Z,6.30
2023-03-06T18:29:17.220Z,6.00
2023-03-06T18:34:40.067Z,3.60
2023-03-06T18:40:02.508Z,6.83
2023-03-06T18:45:24.707Z,5.23
2023-03-06T18:50:47.298Z,8.00
2023-03-06T18:56:17.940Z,6.00
2023-03-06T19:01:43.628Z,6.30
2023-03-06T19:07:06.707Z,5.83
2023-03-06T19:12:28.886Z,6.37
2023-03-06T19:17:51.500Z,7.50
2023-03-06T19:23:14.254Z,11.63
2023-03-06T19:28:39.614Z,8.00
2023-03-06T19:34:01.986Z,8.97
2023-03-06T19:39:24.473Z,12.03
2023-03-06T19:44:47.370Z,12.77
2023-03-06T19:50:10.235Z,11.70
2023-03-06T19:55:32.519Z,9.93
2023-03-06T20:00:54.864Z,10.07
2023-03-06T20:06:19.626Z,10.57
2023-03-06T20:11:42.002Z,9.37
2023-03-06T20:17:04.226Z,8.67
2023-03-06T20:22:27.079Z,9.50
2023-03-06T20:27:49.375Z,9.90
2023-03-06T20:33:11.823Z,13.87
2023-03-06T20:38:34.310Z,10.83
2023-03-06T20:43:59.281Z,10.00
2023-03-06T20:49:22.332Z,13.03
2023-03-06T20:54:45.486Z,10.77
2023-03-06T21:00:08.857Z,10.93
2023-03-06T21:05:31.107Z,9.93
2023-03-06T21:10:53.626Z,13.93
2023-03-06T21:16:19.171Z,8.67
2023-03-06T21:21:41.452Z,10.80
2023-03-06T21:27:04.329Z,11.20
2023-03-06T21:32:27.007Z,12.63
2023-03-06T21:37:49.076Z,15.00
2023-03-06T21:43:12.683Z,15.87
2023-03-06T21:48:35.487Z,15.33
2023-03-06T21:53:59.113Z,18.03
2023-03-06T21:59:21.611Z,7.80
2023-03-06T22:04:44.658Z,14.17
2023-03-06T22:10:09.477Z,15.27
2023-03-06T22:15:32.065Z,13.40
2023-03-06T22:20:54.798Z,14.30
2023-03-06T22:26:17.710Z,18.00
2023-03-06T22:31:40.610Z,11.87
2023-03-06T22:37:02.958Z,16.37
2023-03-06T22:42:25.425Z,10.53
2023-03-06T22:47:47.795Z,14.73
2023-03-06T22:53:10.386Z,11.83
2023-03-06T22:58:37.499Z,16.73
2023-03-06T23:04:02.311Z,9.60
2023-03-06T23:09:25.595Z,9.30
2023-03-06T23:15:06.743Z,10.57
2023-03-06T23:20:47.499Z,8.33
2023-03-06T23:26:30.052Z,11.60
2023-03-06T23:31:52.279Z,9.60
2023-03-06T23:37:14.952Z,12.43
2023-03-06T23:42:37.474Z,8.93
2023-03-06T23:47:59.707Z,11.10
2023-03-06T23:53:23.096Z,9.70
2023-03-06T23:58:45.700Z,9.67
